sensor_id;sensor_type;location;lat;lon;timestamp;pressure;altitude;pressure_sealevel;temperature;humidity
11936;BME280;6027;48.576;9.180;2023-07-24T00:01:02;96238.31;;;20.83;76.43
11936;BME280;6027;48.576;9.180;2023-07-24T00:03:28;96241.00;;;20.83;76.55
11936;BME280;6027;48.576;9.180;2023-07-24T00:05:53;96242.91;;;20.87;76.56
11936;BME280;6027;48.576;9.180;2023-07-24T00:08:22;96244.75;;;20.77;78.71
11936;BME280;6027;48.576;9.180;2023-07-24T00:10:47;96237.69;;;20.65;79.26
11936;BME280;6027;48.576;9.180;2023-07-24T00:13:13;96238.25;;;20.67;74.12
11936;BME280;6027;48.576;9.180;2023-07-24T00:15:38;96238.50;;;20.66;70.78
11936;BME280;6027;48.576;9.180;2023-07-24T00:18:04;96237.16;;;20.68;69.59
11936;BME280;6027;48.576;9.180;2023-07-24T00:20:30;96233.63;;;20.63;69.70
11936;BME280;6027;48.576;9.180;2023-07-24T00:22:55;96237.16;;;20.68;69.12
11936;BME280;6027;48.576;9.180;2023-07-24T00:25:21;96240.16;;;20.72;69.77
11936;BME280;6027;48.576;9.180;2023-07-24T00:27:46;96243.94;;;20.76;70.14
11936;BME280;6027;48.576;9.180;2023-07-24T00:30:11;96245.22;;;20.68;70.58
11936;BME280;6027;48.576;9.180;2023-07-24T00:32:37;96237.16;;;20.68;69.96
11936;BME280;6027;48.576;9.180;2023-07-24T00:35:02;96226.38;;;20.63;69.62
11936;BME280;6027;48.576;9.180;2023-07-24T00:37:28;96235.78;;;20.61;68.90
11936;BME280;6027;48.576;9.180;2023-07-24T00:39:53;96248.16;;;20.62;68.98
11936;BME280;6027;48.576;9.180;2023-07-24T00:42:19;96233.84;;;20.51;69.29
11936;BME280;6027;48.576;9.180;2023-07-24T00:44:44;96226.84;;;20.50;67.76
11936;BME280;6027;48.576;9.180;2023-07-24T00:47:10;96236.78;;;20.50;68.36
11936;BME280;6027;48.576;9.180;2023-07-24T00:49:35;96224.72;;;20.52;67.88
11936;BME280;6027;48.576;9.180;2023-07-24T00:52:01;96231.94;;;20.47;69.63
11936;BME280;6027;48.576;9.180;2023-07-24T00:54:28;96232.88;;;20.30;71.21
11936;BME280;6027;48.576;9.180;2023-07-24T00:56:56;96230.97;;;20.26;73.46
11936;BME280;6027;48.576;9.180;2023-07-24T00:59:21;96219.84;;;20.12;74.97
11936;BME280;6027;48.576;9.180;2023-07-24T01:01:47;96215.81;;;20.10;74.34
11936;BME280;6027;48.576;9.180;2023-07-24T01:04:14;96215.25;;;20.08;74.04
11936;BME280;6027;48.576;9.180;2023-07-24T01:06:40;96206.63;;;20.00;74.14
11936;BME280;6027;48.576;9.180;2023-07-24T01:09:05;96203.38;;;19.98;72.98
11936;BME280;6027;48.576;9.180;2023-07-24T01:11:41;96188.78;;;19.89;73.98
11936;BME280;6027;48.576;9.180;2023-07-24T01:16:47;96175.00;;;19.76;72.76
11936;BME280;6027;48.576;9.180;2023-07-24T01:19:20;96172.06;;;19.82;72.00
11936;BME280;6027;48.576;9.180;2023-07-24T01:27:43;96177.00;;;19.58;74.50
11936;BME280;6027;48.576;9.180;2023-07-24T01:30:10;96177.00;;;19.58;77.33
11936;BME280;6027;48.576;9.180;2023-07-24T01:32:36;96171.75;;;19.47;78.92
11936;BME280;6027;48.576;9.180;2023-07-24T01:35:02;96187.06;;;19.46;80.42
11936;BME280;6027;48.576;9.180;2023-07-24T01:37:34;96187.72;;;19.31;81.57
11936;BME280;6027;48.576;9.180;2023-07-24T01:40:00;96180.16;;;19.23;82.61
11936;BME280;6027;48.576;9.180;2023-07-24T01:42:26;96182.00;;;18.96;85.57
11936;BME280;6027;48.576;9.180;2023-07-24T01:44:54;96173.16;;;18.95;86.04
11936;BME280;6027;48.576;9.180;2023-07-24T01:47:20;96169.28;;;18.86;86.35
11936;BME280;6027;48.576;9.180;2023-07-24T01:49:45;96179.38;;;19.01;85.51
11936;BME280;6027;48.576;9.180;2023-07-24T01:52:11;96174.59;;;19.03;84.52
11936;BME280;6027;48.576;9.180;2023-07-24T01:54:36;96170.53;;;19.01;84.36
11936;BME280;6027;48.576;9.180;2023-07-24T01:57:01;96178.41;;;19.12;83.95
11936;BME280;6027;48.576;9.180;2023-07-24T01:59:27;96171.47;;;18.89;85.87
11936;BME280;6027;48.576;9.180;2023-07-24T02:01:52;96155.03;;;18.81;86.16
11936;BME280;6027;48.576;9.180;2023-07-24T02:04:18;96147.38;;;18.94;85.12
11936;BME280;6027;48.576;9.180;2023-07-24T02:06:48;96150.88;;;18.95;84.50
11936;BME280;6027;48.576;9.180;2023-07-24T02:09:13;96145.59;;;19.05;83.95
11936;BME280;6027;48.576;9.180;2023-07-24T02:11:39;96146.16;;;19.07;83.38
11936;BME280;6027;48.576;9.180;2023-07-24T02:14:04;96154.22;;;19.07;82.54
11936;BME280;6027;48.576;9.180;2023-07-24T02:16:29;96146.00;;;18.92;82.83
11936;BME280;6027;48.576;9.180;2023-07-24T02:18:55;96151.03;;;18.83;83.69
11936;BME280;6027;48.576;9.180;2023-07-24T02:21:21;96137.91;;;18.87;84.17
11936;BME280;6027;48.576;9.180;2023-07-24T02:23:46;96129.31;;;18.85;84.05
11936;BME280;6027;48.576;9.180;2023-07-24T02:26:11;96123.66;;;18.81;84.92
11936;BME280;6027;48.576;9.180;2023-07-24T02:28:37;96108.88;;;18.79;84.70
11936;BME280;6027;48.576;9.180;2023-07-24T02:31:03;96115.47;;;18.71;85.54
11936;BME280;6027;48.576;9.180;2023-07-24T02:33:28;96110.50;;;18.80;83.54
11936;BME280;6027;48.576;9.180;2023-07-24T02:35:54;96112.69;;;18.83;82.62
11936;BME280;6027;48.576;9.180;2023-07-24T02:38:19;96106.25;;;18.84;83.06
11936;BME280;6027;48.576;9.180;2023-07-24T02:40:45;96106.78;;;18.86;83.11
11936;BME280;6027;48.576;9.180;2023-07-24T02:43:10;96107.31;;;18.83;83.16
11936;BME280;6027;48.576;9.180;2023-07-24T02:45:37;96115.53;;;18.76;83.52
11936;BME280;6027;48.576;9.180;2023-07-24T02:48:03;96109.28;;;18.49;86.84
11936;BME280;6027;48.576;9.180;2023-07-24T02:50:28;96105.13;;;18.36;88.31
11936;BME280;6027;48.576;9.180;2023-07-24T02:52:54;96104.31;;;18.36;87.94
11936;BME280;6027;48.576;9.180;2023-07-24T02:55:19;96099.97;;;18.29;87.40
11936;BME280;6027;48.576;9.180;2023-07-24T02:57:45;96106.75;;;18.15;88.18
11936;BME280;6027;48.576;9.180;2023-07-24T03:00:11;96092.97;;;18.28;87.02
11936;BME280;6027;48.576;9.180;2023-07-24T03:02:37;96085.75;;;18.29;85.47
11936;BME280;6027;48.576;9.180;2023-07-24T03:05:03;96073.78;;;18.37;83.17
11936;BME280;6027;48.576;9.180;2023-07-24T03:07:29;96070.94;;;18.43;81.27
11936;BME280;6027;48.576;9.180;2023-07-24T03:09:54;96082.50;;;18.49;80.63
11936;BME280;6027;48.576;9.180;2023-07-24T03:12:20;96080.28;;;18.41;83.12
11936;BME280;6027;48.576;9.180;2023-07-24T03:14:45;96085.06;;;18.39;84.71
11936;BME280;6027;48.576;9.180;2023-07-24T03:17:10;96080.91;;;18.26;85.80
11936;BME280;6027;48.576;9.180;2023-07-24T03:19:36;96079.22;;;18.20;86.70
11936;BME280;6027;48.576;9.180;2023-07-24T03:22:02;96076.47;;;18.15;87.33
11936;BME280;6027;48.576;9.180;2023-07-24T03:24:27;96087.88;;;18.05;88.06
11936;BME280;6027;48.576;9.180;2023-07-24T03:26:53;96094.97;;;17.94;89.49
11936;BME280;6027;48.576;9.180;2023-07-24T03:29:18;96099.47;;;17.89;89.90
11936;BME280;6027;48.576;9.180;2023-07-24T03:31:43;96083.94;;;17.91;89.36
11936;BME280;6027;48.576;9.180;2023-07-24T03:34:09;96086.13;;;17.94;89.20
11936;BME280;6027;48.576;9.180;2023-07-24T03:36:34;96089.59;;;17.94;89.32
11936;BME280;6027;48.576;9.180;2023-07-24T03:39:01;96087.25;;;17.98;88.79
11936;BME280;6027;48.576;9.180;2023-07-24T03:41:26;96089.13;;;17.98;88.25
11936;BME280;6027;48.576;9.180;2023-07-24T03:43:51;96088.53;;;17.95;88.85
11936;BME280;6027;48.576;9.180;2023-07-24T03:46:17;96090.84;;;17.87;89.54
11936;BME280;6027;48.576;9.180;2023-07-24T03:48:42;96087.38;;;17.86;88.96
11936;BME280;6027;48.576;9.180;2023-07-24T03:51:08;96071.31;;;17.86;89.37
11936;BME280;6027;48.576;9.180;2023-07-24T03:53:33;96074.97;;;17.80;89.96
11936;BME280;6027;48.576;9.180;2023-07-24T03:55:59;96074.06;;;17.75;91.08
11936;BME280;6027;48.576;9.180;2023-07-24T03:58:24;96079.38;;;17.70;91.69
11936;BME280;6027;48.576;9.180;2023-07-24T04:00:50;96071.03;;;17.66;92.42
11936;BME280;6027;48.576;9.180;2023-07-24T04:03:16;96079.66;;;17.73;92.47
11936;BME280;6027;48.576;9.180;2023-07-24T04:05:41;96074.97;;;17.64;92.90
11936;BME280;6027;48.576;9.180;2023-07-24T04:08:07;96074.16;;;17.63;93.22
11936;BME280;6027;48.576;9.180;2023-07-24T04:10:32;96063.69;;;17.61;93.50
11936;BME280;6027;48.576;9.180;2023-07-24T04:12:58;96057.06;;;17.64;92.30
11936;BME280;6027;48.576;9.180;2023-07-24T04:15:23;96065.06;;;17.81;90.63
11936;BME280;6027;48.576;9.180;2023-07-24T04:17:49;96054.78;;;17.94;91.10
11936;BME280;6027;48.576;9.180;2023-07-24T04:20:14;96052.06;;;17.89;92.28
11936;BME280;6027;48.576;9.180;2023-07-24T04:22:40;96048.00;;;17.87;93.04
11936;BME280;6027;48.576;9.180;2023-07-24T04:25:06;96040.63;;;17.77;93.83
11936;BME280;6027;48.576;9.180;2023-07-24T04:27:32;96029.56;;;17.69;94.38
11936;BME280;6027;48.576;9.180;2023-07-24T04:29:57;96022.06;;;17.71;94.08
11936;BME280;6027;48.576;9.180;2023-07-24T04:32:23;96033.88;;;17.70;94.54
11936;BME280;6027;48.576;9.180;2023-07-24T04:34:48;96027.19;;;17.72;94.96
11936;BME280;6027;48.576;9.180;2023-07-24T04:37:14;96024.81;;;17.76;94.80
11936;BME280;6027;48.576;9.180;2023-07-24T04:39:39;96025.16;;;17.79;95.05
11936;BME280;6027;48.576;9.180;2023-07-24T04:42:05;96026.03;;;17.85;94.82
11936;BME280;6027;48.576;9.180;2023-07-24T04:44:30;96024.97;;;17.86;94.67
11936;BME280;6027;48.576;9.180;2023-07-24T04:46:57;96031.13;;;17.86;94.30
11936;BME280;6027;48.576;9.180;2023-07-24T04:49:23;96028.31;;;17.76;95.69
11936;BME280;6027;48.576;9.180;2023-07-24T04:51:50;96019.06;;;17.84;95.02
11936;BME280;6027;48.576;9.180;2023-07-24T04:54:15;96024.47;;;17.89;95.00
11936;BME280;6027;48.576;9.180;2023-07-24T04:56:41;96034.38;;;17.88;95.53
11936;BME280;6027;48.576;9.180;2023-07-24T04:59:06;96036.03;;;17.94;97.35
11936;BME280;6027;48.576;9.180;2023-07-24T05:01:31;96044.41;;;17.98;96.99
11936;BME280;6027;48.576;9.180;2023-07-24T05:03:57;96035.41;;;18.09;96.68
11936;BME280;6027;48.576;9.180;2023-07-24T05:06:22;96044.56;;;17.91;98.09
11936;BME280;6027;48.576;9.180;2023-07-24T05:08:48;96044.28;;;17.88;98.68
11936;BME280;6027;48.576;9.180;2023-07-24T05:11:14;96043.59;;;17.98;96.93
11936;BME280;6027;48.576;9.180;2023-07-24T05:13:39;96040.97;;;18.03;95.81
11936;BME280;6027;48.576;9.180;2023-07-24T05:16:05;96045.63;;;17.90;97.25
11936;BME280;6027;48.576;9.180;2023-07-24T05:18:30;96045.25;;;17.82;98.38
11936;BME280;6027;48.576;9.180;2023-07-24T05:20:55;96033.31;;;17.89;97.47
11936;BME280;6027;48.576;9.180;2023-07-24T05:23:21;96039.78;;;17.93;97.43
11936;BME280;6027;48.576;9.180;2023-07-24T05:25:46;96043.91;;;18.01;97.93
11936;BME280;6027;48.576;9.180;2023-07-24T05:28:15;96051.63;;;17.98;99.12
11936;BME280;6027;48.576;9.180;2023-07-24T05:30:40;96065.56;;;18.00;100.00
11936;BME280;6027;48.576;9.180;2023-07-24T05:33:06;96083.03;;;18.02;100.00
11936;BME280;6027;48.576;9.180;2023-07-24T05:35:32;96083.06;;;17.85;100.00
11936;BME280;6027;48.576;9.180;2023-07-24T05:37:57;96100.75;;;17.86;100.00
11936;BME280;6027;48.576;9.180;2023-07-24T05:40:22;96089.00;;;17.87;100.00
11936;BME280;6027;48.576;9.180;2023-07-24T05:42:48;96091.91;;;17.86;100.00
11936;BME280;6027;48.576;9.180;2023-07-24T05:45:13;96088.59;;;17.79;100.00
11936;BME280;6027;48.576;9.180;2023-07-24T05:47:42;96099.06;;;17.80;100.00
11936;BME280;6027;48.576;9.180;2023-07-24T05:50:07;96094.69;;;17.74;100.00
11936;BME280;6027;48.576;9.180;2023-07-24T05:52:33;96113.66;;;17.73;100.00
11936;BME280;6027;48.576;9.180;2023-07-24T05:54:58;96105.13;;;17.76;100.00
11936;BME280;6027;48.576;9.180;2023-07-24T05:57:24;96099.97;;;17.69;100.00
11936;BME280;6027;48.576;9.180;2023-07-24T05:59:50;96121.22;;;17.76;100.00
11936;BME280;6027;48.576;9.180;2023-07-24T06:02:17;96129.22;;;17.92;100.00
11936;BME280;6027;48.576;9.180;2023-07-24T06:04:42;96114.19;;;17.91;100.00
11936;BME280;6027;48.576;9.180;2023-07-24T06:07:08;96117.19;;;17.95;100.00
11936;BME280;6027;48.576;9.180;2023-07-24T06:09:33;96119.50;;;17.86;100.00
11936;BME280;6027;48.576;9.180;2023-07-24T06:11:58;96115.19;;;17.85;100.00
11936;BME280;6027;48.576;9.180;2023-07-24T06:14:24;96096.59;;;17.95;100.00
11936;BME280;6027;48.576;9.180;2023-07-24T06:16:49;96092.91;;;18.02;100.00
11936;BME280;6027;48.576;9.180;2023-07-24T06:19:15;96092.44;;;18.05;98.96
11936;BME280;6027;48.576;9.180;2023-07-24T06:21:41;96073.19;;;18.08;98.30
11936;BME280;6027;48.576;9.180;2023-07-24T06:24:06;96073.69;;;18.26;97.31
11936;BME280;6027;48.576;9.180;2023-07-24T06:26:36;96076.66;;;18.30;96.75
11936;BME280;6027;48.576;9.180;2023-07-24T06:29:02;96061.63;;;18.29;96.48
11936;BME280;6027;48.576;9.180;2023-07-24T06:31:27;96054.84;;;18.43;95.13
11936;BME280;6027;48.576;9.180;2023-07-24T06:33:53;96047.91;;;18.47;94.06
11936;BME280;6027;48.576;9.180;2023-07-24T06:36:18;96045.78;;;18.49;94.18
11936;BME280;6027;48.576;9.180;2023-07-24T06:38:44;96040.16;;;18.51;94.89
11936;BME280;6027;48.576;9.180;2023-07-24T06:41:12;96055.50;;;18.55;94.99
11936;BME280;6027;48.576;9.180;2023-07-24T06:43:37;96073.72;;;18.53;94.74
11936;BME280;6027;48.576;9.180;2023-07-24T06:46:03;96062.00;;;18.59;94.21
11936;BME280;6027;48.576;9.180;2023-07-24T06:48:28;96049.47;;;18.65;94.29
11936;BME280;6027;48.576;9.180;2023-07-24T06:50:54;96063.69;;;18.66;95.22
11936;BME280;6027;48.576;9.180;2023-07-24T06:53:20;96060.97;;;18.60;95.64
11936;BME280;6027;48.576;9.180;2023-07-24T06:55:45;96048.94;;;18.68;95.30
11936;BME280;6027;48.576;9.180;2023-07-24T06:58:11;96041.22;;;18.72;95.39
11936;BME280;6027;48.576;9.180;2023-07-24T07:00:36;96034.09;;;18.82;94.09
11936;BME280;6027;48.576;9.180;2023-07-24T07:03:01;96049.63;;;18.80;95.07
11936;BME280;6027;48.576;9.180;2023-07-24T07:05:27;96071.06;;;18.80;95.32
11936;BME280;6027;48.576;9.180;2023-07-24T07:07:53;96082.94;;;18.89;96.59
11936;BME280;6027;48.576;9.180;2023-07-24T07:10:18;96079.00;;;18.97;97.13
11936;BME280;6027;48.576;9.180;2023-07-24T07:12:43;96075.75;;;18.95;98.30
11936;BME280;6027;48.576;9.180;2023-07-24T07:15:09;96084.25;;;18.87;97.60
11936;BME280;6027;48.576;9.180;2023-07-24T07:17:34;96100.16;;;18.93;97.94
11936;BME280;6027;48.576;9.180;2023-07-24T07:20:00;96096.47;;;19.00;98.54
11936;BME280;6027;48.576;9.180;2023-07-24T07:22:25;96082.69;;;18.91;98.78
11936;BME280;6027;48.576;9.180;2023-07-24T07:24:51;96102.53;;;18.90;99.91
11936;BME280;6027;48.576;9.180;2023-07-24T07:27:16;96101.34;;;19.03;99.56
11936;BME280;6027;48.576;9.180;2023-07-24T07:29:43;96090.69;;;19.13;100.00
11936;BME280;6027;48.576;9.180;2023-07-24T07:32:09;96092.13;;;19.25;100.00
11936;BME280;6027;48.576;9.180;2023-07-24T07:34:34;96100.63;;;19.49;100.00
11936;BME280;6027;48.576;9.180;2023-07-24T07:37:01;96103.72;;;19.63;100.00
11936;BME280;6027;48.576;9.180;2023-07-24T07:39:26;96109.25;;;19.88;99.46
11936;BME280;6027;48.576;9.180;2023-07-24T07:41:52;96107.72;;;20.02;98.27
11936;BME280;6027;48.576;9.180;2023-07-24T07:44:17;96109.72;;;20.22;97.02
11936;BME280;6027;48.576;9.180;2023-07-24T07:46:43;96110.03;;;20.31;96.33
11936;BME280;6027;48.576;9.180;2023-07-24T07:49:08;96116.56;;;20.45;96.41
11936;BME280;6027;48.576;9.180;2023-07-24T07:51:33;96121.97;;;20.50;95.29
11936;BME280;6027;48.576;9.180;2023-07-24T07:53:59;96124.38;;;20.47;96.67
11936;BME280;6027;48.576;9.180;2023-07-24T07:56:24;96134.03;;;20.43;95.42
11936;BME280;6027;48.576;9.180;2023-07-24T07:58:50;96129.22;;;20.50;96.72
11936;BME280;6027;48.576;9.180;2023-07-24T08:01:15;96143.47;;;20.45;96.81
11936;BME280;6027;48.576;9.180;2023-07-24T08:03:41;96139.69;;;20.46;96.92
11936;BME280;6027;48.576;9.180;2023-07-24T08:06:06;96144.84;;;20.53;96.64
11936;BME280;6027;48.576;9.180;2023-07-24T08:08:32;96120.13;;;20.56;95.67
11936;BME280;6027;48.576;9.180;2023-07-24T08:10:57;96137.91;;;20.67;96.83
11936;BME280;6027;48.576;9.180;2023-07-24T08:13:23;96119.06;;;20.67;96.94
11936;BME280;6027;48.576;9.180;2023-07-24T08:15:49;96135.53;;;20.76;97.75
11936;BME280;6027;48.576;9.180;2023-07-24T08:18:14;96099.16;;;20.63;99.96
11936;BME280;6027;48.576;9.180;2023-07-24T08:20:40;96111.81;;;20.67;98.94
11936;BME280;6027;48.576;9.180;2023-07-24T08:23:05;96123.41;;;20.73;97.33
11936;BME280;6027;48.576;9.180;2023-07-24T08:25:31;96116.13;;;20.79;98.06
11936;BME280;6027;48.576;9.180;2023-07-24T08:27:56;96108.63;;;20.76;97.18
11936;BME280;6027;48.576;9.180;2023-07-24T08:30:22;96092.72;;;20.69;97.41
11936;BME280;6027;48.576;9.180;2023-07-24T08:32:47;96094.56;;;20.63;98.38
11936;BME280;6027;48.576;9.180;2023-07-24T08:35:15;96090.00;;;20.64;99.24
11936;BME280;6027;48.576;9.180;2023-07-24T08:37:44;96072.25;;;20.58;100.00
11936;BME280;6027;48.576;9.180;2023-07-24T08:40:10;96067.91;;;20.47;100.00
11936;BME280;6027;48.576;9.180;2023-07-24T08:42:39;96060.63;;;20.42;100.00
11936;BME280;6027;48.576;9.180;2023-07-24T08:45:12;96063.00;;;20.33;100.00
11936;BME280;6027;48.576;9.180;2023-07-24T08:47:44;96059.00;;;20.41;100.00
11936;BME280;6027;48.576;9.180;2023-07-24T08:50:10;96053.38;;;20.38;100.00
11936;BME280;6027;48.576;9.180;2023-07-24T08:52:40;96047.44;;;20.41;100.00
11936;BME280;6027;48.576;9.180;2023-07-24T08:55:07;96041.53;;;20.44;100.00
11936;BME280;6027;48.576;9.180;2023-07-24T08:57:33;96046.66;;;20.45;100.00
11936;BME280;6027;48.576;9.180;2023-07-24T08:59:59;96045.31;;;20.48;100.00
11936;BME280;6027;48.576;9.180;2023-07-24T09:02:30;96040.75;;;20.48;100.00
11936;BME280;6027;48.576;9.180;2023-07-24T09:04:55;96052.59;;;20.52;100.00
11936;BME280;6027;48.576;9.180;2023-07-24T09:07:21;96046.41;;;20.52;100.00
11936;BME280;6027;48.576;9.180;2023-07-24T09:09:47;96049.13;;;20.57;100.00
11936;BME280;6027;48.576;9.180;2023-07-24T09:12:15;96050.50;;;20.69;100.00
11936;BME280;6027;48.576;9.180;2023-07-24T09:14:41;96038.66;;;20.71;100.00
11936;BME280;6027;48.576;9.180;2023-07-24T09:17:10;96034.91;;;20.82;100.00
11936;BME280;6027;48.576;9.180;2023-07-24T09:19:37;96035.72;;;20.87;100.00
11936;BME280;6027;48.576;9.180;2023-07-24T09:22:11;96030.88;;;20.89;100.00
11936;BME280;6027;48.576;9.180;2023-07-24T09:24:36;96026.03;;;20.86;100.00
11936;BME280;6027;48.576;9.180;2023-07-24T09:27:04;96033.03;;;20.92;99.50
11936;BME280;6027;48.576;9.180;2023-07-24T09:29:31;96023.88;;;20.98;96.90
11936;BME280;6027;48.576;9.180;2023-07-24T09:31:58;96012.06;;;20.94;95.72
11936;BME280;6027;48.576;9.180;2023-07-24T09:34:24;96009.63;;;20.88;96.62
11936;BME280;6027;48.576;9.180;2023-07-24T09:36:51;96005.88;;;20.94;97.97
11936;BME280;6027;48.576;9.180;2023-07-24T09:39:26;96003.44;;;20.92;99.80
11936;BME280;6027;48.576;9.180;2023-07-24T09:41:51;96021.19;;;20.88;100.00
11936;BME280;6027;48.576;9.180;2023-07-24T09:44:18;96017.41;;;20.79;100.00
11936;BME280;6027;48.576;9.180;2023-07-24T09:46:43;96016.88;;;20.72;100.00
11936;BME280;6027;48.576;9.180;2023-07-24T09:49:09;96023.88;;;20.78;100.00
11936;BME280;6027;48.576;9.180;2023-07-24T09:51:35;96032.75;;;20.84;100.00
11936;BME280;6027;48.576;9.180;2023-07-24T09:54:26;96034.38;;;20.90;100.00
11936;BME280;6027;48.576;9.180;2023-07-24T09:56:57;96051.03;;;20.82;100.00
11936;BME280;6027;48.576;9.180;2023-07-24T09:59:23;96073.09;;;20.79;100.00
11936;BME280;6027;48.576;9.180;2023-07-24T10:01:49;96087.59;;;20.67;100.00
11936;BME280;6027;48.576;9.180;2023-07-24T10:04:16;96084.91;;;20.57;100.00
11936;BME280;6027;48.576;9.180;2023-07-24T10:06:43;96087.53;;;20.47;100.00
11936;BME280;6027;48.576;9.180;2023-07-24T10:09:08;96087.50;;;20.42;100.00
11936;BME280;6027;48.576;9.180;2023-07-24T10:11:34;96086.06;;;20.24;100.00
11936;BME280;6027;48.576;9.180;2023-07-24T10:14:00;96093.88;;;20.26;100.00
11936;BME280;6027;48.576;9.180;2023-07-24T10:16:26;96095.13;;;20.08;100.00
11936;BME280;6027;48.576;9.180;2023-07-24T10:18:52;96094.84;;;20.05;100.00
11936;BME280;6027;48.576;9.180;2023-07-24T10:21:17;96117.84;;;19.85;100.00
11936;BME280;6027;48.576;9.180;2023-07-24T10:23:45;96104.00;;;19.66;100.00
11936;BME280;6027;48.576;9.180;2023-07-24T10:26:12;96119.63;;;19.70;100.00
11936;BME280;6027;48.576;9.180;2023-07-24T10:28:39;96124.44;;;19.67;100.00
11936;BME280;6027;48.576;9.180;2023-07-24T10:31:25;96119.63;;;19.70;100.00
11936;BME280;6027;48.576;9.180;2023-07-24T10:33:55;96141.50;;;19.51;100.00
11936;BME280;6027;48.576;9.180;2023-07-24T10:36:22;96156.47;;;19.47;100.00
11936;BME280;6027;48.576;9.180;2023-07-24T10:38:55;96172.75;;;19.36;100.00
11936;BME280;6027;48.576;9.180;2023-07-24T10:41:22;96168.50;;;19.40;100.00
11936;BME280;6027;48.576;9.180;2023-07-24T10:43:49;96171.94;;;19.35;100.00
11936;BME280;6027;48.576;9.180;2023-07-24T10:46:17;96180.16;;;19.23;100.00
11936;BME280;6027;48.576;9.180;2023-07-24T10:48:45;96183.22;;;19.10;100.00
11936;BME280;6027;48.576;9.180;2023-07-24T10:51:11;96168.50;;;19.13;100.00
11936;BME280;6027;48.576;9.180;2023-07-24T10:53:43;96180.22;;;19.07;100.00
11936;BME280;6027;48.576;9.180;2023-07-24T10:56:09;96186.13;;;19.04;100.00
11936;BME280;6027;48.576;9.180;2023-07-24T10:58:34;96169.66;;;18.95;100.00
11936;BME280;6027;48.576;9.180;2023-07-24T11:01:03;96190.56;;;18.93;100.00
11936;BME280;6027;48.576;9.180;2023-07-24T11:03:30;96192.56;;;18.81;100.00
11936;BME280;6027;48.576;9.180;2023-07-24T11:05:57;96183.97;;;18.79;100.00
11936;BME280;6027;48.576;9.180;2023-07-24T11:08:23;96149.28;;;18.72;100.00
11936;BME280;6027;48.576;9.180;2023-07-24T11:10:53;96141.63;;;18.59;100.00
11936;BME280;6027;48.576;9.180;2023-07-24T11:13:21;96185.91;;;18.61;100.00
11936;BME280;6027;48.576;9.180;2023-07-24T11:15:48;96189.53;;;18.55;100.00
11936;BME280;6027;48.576;9.180;2023-07-24T11:18:14;96175.56;;;18.53;100.00
11936;BME280;6027;48.576;9.180;2023-07-24T11:20:47;96163.88;;;18.59;100.00
11936;BME280;6027;48.576;9.180;2023-07-24T11:23:14;96140.50;;;18.77;100.00
11936;BME280;6027;48.576;9.180;2023-07-24T11:25:40;96129.41;;;18.95;100.00
11936;BME280;6027;48.576;9.180;2023-07-24T11:28:07;96101.59;;;19.01;100.00
11936;BME280;6027;48.576;9.180;2023-07-24T11:30:33;96063.53;;;19.04;100.00
11936;BME280;6027;48.576;9.180;2023-07-24T11:33:01;96031.66;;;19.13;100.00
11936;BME280;6027;48.576;9.180;2023-07-24T11:35:28;96003.00;;;19.18;100.00
11936;BME280;6027;48.576;9.180;2023-07-24T11:37:54;95985.13;;;19.34;100.00
11936;BME280;6027;48.576;9.180;2023-07-24T11:40:19;95971.72;;;19.44;100.00
11936;BME280;6027;48.576;9.180;2023-07-24T11:42:47;95992.69;;;19.47;100.00
11936;BME280;6027;48.576;9.180;2023-07-24T11:45:13;95990.16;;;19.62;100.00
11936;BME280;6027;48.576;9.180;2023-07-24T11:47:46;95983.28;;;19.92;100.00
11936;BME280;6027;48.576;9.180;2023-07-24T11:50:12;95995.09;;;19.91;100.00
11936;BME280;6027;48.576;9.180;2023-07-24T11:55:15;95988.00;;;20.32;100.00
11936;BME280;6027;48.576;9.180;2023-07-24T11:57:41;95995.84;;;20.39;100.00
11936;BME280;6027;48.576;9.180;2023-07-24T12:00:18;95997.16;;;20.41;100.00
11936;BME280;6027;48.576;9.180;2023-07-24T12:02:44;96011.72;;;20.50;100.00
11936;BME280;6027;48.576;9.180;2023-07-24T12:05:10;96020.06;;;20.54;100.00
11936;BME280;6027;48.576;9.180;2023-07-24T12:07:36;96024.66;;;20.58;100.00
11936;BME280;6027;48.576;9.180;2023-07-24T12:10:05;96024.34;;;20.50;100.00
11936;BME280;6027;48.576;9.180;2023-07-24T12:12:46;96032.16;;;20.51;100.00
11936;BME280;6027;48.576;9.180;2023-07-24T12:15:12;96038.34;;;20.52;100.00
11936;BME280;6027;48.576;9.180;2023-07-24T12:17:39;96060.97;;;20.56;100.00
11936;BME280;6027;48.576;9.180;2023-07-24T12:20:06;96055.03;;;20.64;100.00
11936;BME280;6027;48.576;9.180;2023-07-24T12:22:34;96042.44;;;20.80;100.00
11936;BME280;6027;48.576;9.180;2023-07-24T12:25:01;96040.56;;;20.85;100.00
11936;BME280;6027;48.576;9.180;2023-07-24T12:27:26;96041.41;;;20.96;100.00
11936;BME280;6027;48.576;9.180;2023-07-24T12:29:52;96037.88;;;21.06;100.00
11936;BME280;6027;48.576;9.180;2023-07-24T12:32:17;96034.13;;;21.07;100.00
11936;BME280;6027;48.576;9.180;2023-07-24T12:34:45;96033.03;;;21.08;100.00
11936;BME280;6027;48.576;9.180;2023-07-24T12:37:10;96028.19;;;21.04;100.00
11936;BME280;6027;48.576;9.180;2023-07-24T12:39:36;96022.81;;;21.15;100.00
11936;BME280;6027;48.576;9.180;2023-07-24T12:42:01;96016.38;;;21.16;100.00
11936;BME280;6027;48.576;9.180;2023-07-24T12:44:27;96006.16;;;21.23;100.00
11936;BME280;6027;48.576;9.180;2023-07-24T12:46:52;96006.97;;;21.23;100.00
11936;BME280;6027;48.576;9.180;2023-07-24T12:49:17;96009.66;;;21.23;100.00
11936;BME280;6027;48.576;9.180;2023-07-24T12:51:43;95990.25;;;21.36;100.00
11936;BME280;6027;48.576;9.180;2023-07-24T12:54:08;95990.78;;;21.38;100.00
11936;BME280;6027;48.576;9.180;2023-07-24T12:56:34;95973.28;;;21.41;100.00
11936;BME280;6027;48.576;9.180;2023-07-24T12:59:01;95963.31;;;21.42;100.00
11936;BME280;6027;48.576;9.180;2023-07-24T13:01:26;95945.53;;;21.51;100.00
11936;BME280;6027;48.576;9.180;2023-07-24T13:03:54;95955.97;;;21.62;100.00
11936;BME280;6027;48.576;9.180;2023-07-24T13:06:19;95966.16;;;21.81;100.00
11936;BME280;6027;48.576;9.180;2023-07-24T13:08:45;95978.25;;;21.93;100.00
11936;BME280;6027;48.576;9.180;2023-07-24T13:11:10;95980.38;;;21.96;100.00
11936;BME280;6027;48.576;9.180;2023-07-24T13:13:36;95986.84;;;22.05;100.00